Terminal Aerodrome Forecast
Issued by NWS

Home | Current Version | Previous Version | Text Only | Print | Product List | Glossary On
Versions: 1 2 3 4 5 6 7 8 9 10 11 12 13 14 15 16 17 18 19
000
FTUS41 KBGM 270859 AAB
TAFELM
TAF AMD
KELM 270859Z 2709/2806 00000KT P6SM SCT200
      TEMPO 2709/2713 1SM BR BKN006
     FM271400 16006KT P6SM SKC
     FM271900 18011G20KT P6SM BKN050
      TEMPO 2802/2806 5SM TSRA BR BKN025CB=

USA.gov is the U.S. government's official web portal to all federal, state and local government web resources and services.